sensor_id;sensor_type;location;lat;lon;timestamp;pressure;altitude;pressure_sealevel;temperature;humidity
12197;BME280;6161;43.014;25.840;2022-09-03T00:02:13;99523.47;;;23.28;nan
12197;BME280;6161;43.014;25.840;2022-09-03T00:04:44;99437.97;;;23.02;nan
12197;BME280;6161;43.014;25.840;2022-09-03T00:07:17;99502.66;;;23.27;nan
12197;BME280;6161;43.014;25.840;2022-09-03T00:09:50;99508.22;;;23.20;nan
12197;BME280;6161;43.014;25.840;2022-09-03T00:12:27;99504.91;;;23.18;nan
12197;BME280;6161;43.014;25.840;2022-09-03T00:15:02;99554.97;;;23.18;nan
12197;BME280;6161;43.014;25.840;2022-09-03T00:17:33;99506.16;;;23.15;nan
12197;BME280;6161;43.014;25.840;2022-09-03T00:20:11;99535.69;;;23.13;nan
12197;BME280;6161;43.014;25.840;2022-09-03T00:22:42;99529.34;;;23.13;nan
12197;BME280;6161;43.014;25.840;2022-09-03T00:27:40;99574.44;;;23.10;nan
12197;BME280;6161;43.014;25.840;2022-09-03T00:30:14;99572.75;;;23.09;nan
12197;BME280;6161;43.014;25.840;2022-09-03T00:33:25;99575.81;;;23.01;nan
12197;BME280;6161;43.014;25.840;2022-09-03T00:35:42;99531.72;;;22.91;nan
12197;BME280;6161;43.014;25.840;2022-09-03T00:38:09;99580.09;;;22.90;nan
12197;BME280;6161;43.014;25.840;2022-09-03T00:52:17;99600.25;;;22.77;nan
12197;BME280;6161;43.014;25.840;2022-09-03T01:00:27;99601.88;;;22.60;nan
12197;BME280;6161;43.014;25.840;2022-09-03T01:03:06;99619.22;;;22.54;nan
12197;BME280;6161;43.014;25.840;2022-09-03T01:10:51;99550.91;;;22.29;nan
12197;BME280;6161;43.014;25.840;2022-09-03T01:30:06;99586.78;;;22.07;nan
12197;BME280;6161;43.014;25.840;2022-09-03T01:33:01;99628.22;;;22.04;nan
12197;BME280;6161;43.014;25.840;2022-09-03T01:35:45;99593.16;;;22.01;nan
12197;BME280;6161;43.014;25.840;2022-09-03T01:46:42;99595.69;;;21.96;nan
12197;BME280;6161;43.014;25.840;2022-09-03T01:54:36;99569.72;;;21.87;nan
12197;BME280;6161;43.014;25.840;2022-09-03T02:00:12;99634.81;;;21.90;nan
12197;BME280;6161;43.014;25.840;2022-09-03T02:02:43;99603.94;;;21.89;nan
12197;BME280;6161;43.014;25.840;2022-09-03T02:05:12;99643.22;;;21.88;nan
12197;BME280;6161;43.014;25.840;2022-09-03T02:07:45;99647.84;;;21.88;nan
12197;BME280;6161;43.014;25.840;2022-09-03T02:10:16;99586.56;;;21.84;nan
12197;BME280;6161;43.014;25.840;2022-09-03T02:12:48;99607.53;;;21.83;nan
12197;BME280;6161;43.014;25.840;2022-09-03T02:15:19;99594.13;;;21.82;nan
12197;BME280;6161;43.014;25.840;2022-09-03T02:17:47;99627.94;;;21.81;nan
12197;BME280;6161;43.014;25.840;2022-09-03T02:20:22;99627.72;;;21.82;nan
12197;BME280;6161;43.014;25.840;2022-09-03T02:22:48;99629.38;;;21.83;nan
12197;BME280;6161;43.014;25.840;2022-09-03T02:25:15;99624.00;;;21.77;nan
12197;BME280;6161;43.014;25.840;2022-09-03T02:27:44;99583.25;;;21.75;nan
12197;BME280;6161;43.014;25.840;2022-09-03T02:30:10;99649.59;;;21.76;nan
12197;BME280;6161;43.014;25.840;2022-09-03T02:32:36;99638.91;;;21.74;nan
12197;BME280;6161;43.014;25.840;2022-09-03T02:35:02;99624.41;;;21.73;nan
12197;BME280;6161;43.014;25.840;2022-09-03T02:37:28;99610.53;;;21.75;nan
12197;BME280;6161;43.014;25.840;2022-09-03T02:39:53;99597.09;;;21.73;nan
12197;BME280;6161;43.014;25.840;2022-09-03T02:42:19;99603.47;;;21.67;nan
12197;BME280;6161;43.014;25.840;2022-09-03T02:44:51;99659.31;;;21.71;nan
12197;BME280;6161;43.014;25.840;2022-09-03T02:47:18;99615.22;;;21.68;nan
12197;BME280;6161;43.014;25.840;2022-09-03T02:49:52;99647.75;;;21.69;nan
12197;BME280;6161;43.014;25.840;2022-09-03T02:52:18;99606.41;;;21.66;nan
12197;BME280;6161;43.014;25.840;2022-09-03T02:54:43;99647.13;;;21.67;nan
12197;BME280;6161;43.014;25.840;2022-09-03T02:57:11;99610.81;;;21.67;nan
12197;BME280;6161;43.014;25.840;2022-09-03T02:59:37;99619.84;;;21.67;nan
12197;BME280;6161;43.014;25.840;2022-09-03T03:04:33;99587.56;;;21.58;nan
12197;BME280;6161;43.014;25.840;2022-09-03T03:06:58;99596.41;;;21.53;nan
12197;BME280;6161;43.014;25.840;2022-09-03T03:11:50;99580.69;;;21.48;nan
12197;BME280;6161;43.014;25.840;2022-09-03T03:14:16;99606.75;;;21.44;nan
12197;BME280;6161;43.014;25.840;2022-09-03T03:19:08;99632.34;;;21.43;nan
12197;BME280;6161;43.014;25.840;2022-09-03T03:21:34;99709.38;;;21.45;nan
12197;BME280;6161;43.014;25.840;2022-09-03T03:24:01;99684.63;;;21.40;nan
12197;BME280;6161;43.014;25.840;2022-09-03T03:28:57;99615.97;;;21.43;nan
12197;BME280;6161;43.014;25.840;2022-09-03T03:31:24;99604.44;;;21.41;nan
12197;BME280;6161;43.014;25.840;2022-09-03T03:33:54;99607.78;;;21.43;nan
12197;BME280;6161;43.014;25.840;2022-09-03T03:36:20;99630.44;;;21.44;nan
12197;BME280;6161;43.014;25.840;2022-09-03T03:38:46;99611.59;;;21.42;nan
12197;BME280;6161;43.014;25.840;2022-09-03T03:43:45;99652.72;;;21.41;nan
12197;BME280;6161;43.014;25.840;2022-09-03T03:46:14;99619.53;;;21.44;nan
12197;BME280;6161;43.014;25.840;2022-09-03T03:48:42;99635.50;;;21.40;nan
12197;BME280;6161;43.014;25.840;2022-09-03T03:51:11;99650.16;;;21.46;nan
12197;BME280;6161;43.014;25.840;2022-09-03T03:56:06;99649.34;;;21.45;nan
12197;BME280;6161;43.014;25.840;2022-09-03T03:58:34;99620.78;;;21.48;nan
12197;BME280;6161;43.014;25.840;2022-09-03T04:01:14;99603.16;;;21.44;nan
12197;BME280;6161;43.014;25.840;2022-09-03T04:03:41;99610.31;;;21.45;nan
12197;BME280;6161;43.014;25.840;2022-09-03T04:06:08;99664.06;;;21.44;nan
12197;BME280;6161;43.014;25.840;2022-09-03T04:08:40;99634.88;;;21.45;nan
12197;BME280;6161;43.014;25.840;2022-09-03T04:13:36;99636.34;;;21.41;nan
12197;BME280;6161;43.014;25.840;2022-09-03T04:18:31;99659.47;;;21.32;nan
12197;BME280;6161;43.014;25.840;2022-09-03T04:21:02;99646.22;;;21.28;nan
12197;BME280;6161;43.014;25.840;2022-09-03T04:23:35;99655.03;;;21.30;nan
12197;BME280;6161;43.014;25.840;2022-09-03T04:26:02;99683.16;;;21.31;nan
12197;BME280;6161;43.014;25.840;2022-09-03T04:33:19;99653.78;;;21.26;nan
12197;BME280;6161;43.014;25.840;2022-09-03T04:35:45;99687.38;;;21.27;nan
12197;BME280;6161;43.014;25.840;2022-09-03T04:38:11;99675.41;;;21.28;nan
12197;BME280;6161;43.014;25.840;2022-09-03T04:40:37;99609.09;;;21.27;nan
12197;BME280;6161;43.014;25.840;2022-09-03T04:43:03;99694.31;;;21.23;nan
12197;BME280;6161;43.014;25.840;2022-09-03T04:45:29;99650.66;;;21.29;nan
12197;BME280;6161;43.014;25.840;2022-09-03T04:47:59;99689.03;;;21.28;nan
12197;BME280;6161;43.014;25.840;2022-09-03T04:52:58;99692.66;;;21.22;nan
12197;BME280;6161;43.014;25.840;2022-09-03T04:55:25;99700.59;;;21.23;nan
12197;BME280;6161;43.014;25.840;2022-09-03T04:57:50;99710.69;;;21.23;nan
12197;BME280;6161;43.014;25.840;2022-09-03T05:00:17;99683.84;;;21.20;nan
12197;BME280;6161;43.014;25.840;2022-09-03T05:02:45;99709.22;;;21.20;nan
12197;BME280;6161;43.014;25.840;2022-09-03T05:05:13;99698.09;;;21.22;nan
12197;BME280;6161;43.014;25.840;2022-09-03T05:07:39;99702.69;;;21.21;nan
12197;BME280;6161;43.014;25.840;2022-09-03T05:10:07;99712.78;;;21.21;nan
12197;BME280;6161;43.014;25.840;2022-09-03T05:12:33;99768.19;;;21.08;nan
12197;BME280;6161;43.014;25.840;2022-09-03T05:14:59;99685.09;;;21.11;nan
12197;BME280;6161;43.014;25.840;2022-09-03T05:17:25;99685.31;;;21.16;nan
12197;BME280;6161;43.014;25.840;2022-09-03T05:19:50;99743.41;;;21.16;nan
12197;BME280;6161;43.014;25.840;2022-09-03T05:24:46;99680.03;;;21.21;nan
12197;BME280;6161;43.014;25.840;2022-09-03T05:27:13;99670.63;;;21.17;nan
12197;BME280;6161;43.014;25.840;2022-09-03T05:29:44;99664.53;;;21.15;nan
12197;BME280;6161;43.014;25.840;2022-09-03T05:32:10;99728.94;;;21.16;nan
12197;BME280;6161;43.014;25.840;2022-09-03T05:34:47;99737.56;;;21.06;nan
12197;BME280;6161;43.014;25.840;2022-09-03T05:37:12;99714.09;;;20.98;nan
12197;BME280;6161;43.014;25.840;2022-09-03T05:39:38;99738.63;;;21.05;nan
12197;BME280;6161;43.014;25.840;2022-09-03T05:42:03;99755.63;;;21.07;nan
12197;BME280;6161;43.014;25.840;2022-09-03T05:44:29;99688.91;;;21.03;nan
12197;BME280;6161;43.014;25.840;2022-09-03T05:46:55;99738.00;;;21.03;nan
12197;BME280;6161;43.014;25.840;2022-09-03T05:49:20;99722.88;;;20.94;nan
12197;BME280;6161;43.014;25.840;2022-09-03T05:51:46;99748.69;;;20.91;nan
12197;BME280;6161;43.014;25.840;2022-09-03T05:54:12;99749.75;;;20.90;nan
12197;BME280;6161;43.014;25.840;2022-09-03T05:56:38;99725.00;;;20.92;nan
12197;BME280;6161;43.014;25.840;2022-09-03T06:01:41;99775.75;;;20.93;nan
12197;BME280;6161;43.014;25.840;2022-09-03T06:04:12;99855.84;;;20.92;nan
12197;BME280;6161;43.014;25.840;2022-09-03T06:06:42;99718.28;;;20.88;nan
12197;BME280;6161;43.014;25.840;2022-09-03T06:09:11;99718.69;;;20.91;nan
12197;BME280;6161;43.014;25.840;2022-09-03T06:11:42;99782.88;;;20.94;nan
12197;BME280;6161;43.014;25.840;2022-09-03T06:16:40;99764.84;;;20.93;nan
12197;BME280;6161;43.014;25.840;2022-09-03T06:19:07;99779.94;;;20.95;nan
12197;BME280;6161;43.014;25.840;2022-09-03T06:21:42;99805.53;;;20.94;nan
12197;BME280;6161;43.014;25.840;2022-09-03T06:24:14;99758.97;;;20.96;nan
12197;BME280;6161;43.014;25.840;2022-09-03T06:26:39;99767.97;;;20.96;nan
12197;BME280;6161;43.014;25.840;2022-09-03T06:29:05;99748.91;;;20.90;nan
12197;BME280;6161;43.014;25.840;2022-09-03T06:31:31;99762.13;;;20.93;nan
12197;BME280;6161;43.014;25.840;2022-09-03T06:33:57;99733.78;;;20.94;nan
12197;BME280;6161;43.014;25.840;2022-09-03T06:38:53;99754.34;;;20.96;nan
12197;BME280;6161;43.014;25.840;2022-09-03T06:41:24;99757.72;;;20.98;nan
12197;BME280;6161;43.014;25.840;2022-09-03T06:43:56;99823.59;;;21.02;nan
12197;BME280;6161;43.014;25.840;2022-09-03T06:48:53;99803.44;;;21.03;nan
12197;BME280;6161;43.014;25.840;2022-09-03T06:51:24;99816.44;;;21.01;nan
12197;BME280;6161;43.014;25.840;2022-09-03T06:53:52;99769.06;;;21.02;nan
12197;BME280;6161;43.014;25.840;2022-09-03T06:56:23;99825.88;;;20.98;nan
12197;BME280;6161;43.014;25.840;2022-09-03T06:58:56;99779.53;;;20.98;nan
12197;BME280;6161;43.014;25.840;2022-09-03T07:01:24;99819.16;;;20.94;nan
12197;BME280;6161;43.014;25.840;2022-09-03T07:03:58;99805.53;;;20.94;nan
12197;BME280;6161;43.014;25.840;2022-09-03T07:08:57;99773.22;;;20.91;nan
12197;BME280;6161;43.014;25.840;2022-09-03T07:11:31;99798.84;;;20.90;nan
12197;BME280;6161;43.014;25.840;2022-09-03T07:13:58;99817.94;;;20.97;nan
12197;BME280;6161;43.014;25.840;2022-09-03T07:16:24;99794.84;;;20.99;nan
12197;BME280;6161;43.014;25.840;2022-09-03T07:18:51;99822.97;;;21.00;nan
12197;BME280;6161;43.014;25.840;2022-09-03T07:21:22;99802.81;;;21.01;nan
12197;BME280;6161;43.014;25.840;2022-09-03T07:23:49;99820.22;;;21.00;nan
12197;BME280;6161;43.014;25.840;2022-09-03T07:26:22;99832.81;;;21.01;nan
12197;BME280;6161;43.014;25.840;2022-09-03T07:28:48;99829.88;;;21.02;nan
12197;BME280;6161;43.014;25.840;2022-09-03T07:31:20;99778.06;;;20.96;nan
12197;BME280;6161;43.014;25.840;2022-09-03T07:33:52;99777.84;;;21.04;nan
12197;BME280;6161;43.014;25.840;2022-09-03T07:36:20;99815.19;;;21.10;nan
12197;BME280;6161;43.014;25.840;2022-09-03T07:38:46;99822.09;;;21.13;nan
12197;BME280;6161;43.014;25.840;2022-09-03T07:41:13;99790.84;;;21.15;nan
12197;BME280;6161;43.014;25.840;2022-09-03T07:43:43;99854.22;;;21.17;nan
12197;BME280;6161;43.014;25.840;2022-09-03T07:46:17;99852.94;;;21.13;nan
12197;BME280;6161;43.014;25.840;2022-09-03T07:48:50;99807.81;;;21.24;nan
12197;BME280;6161;43.014;25.840;2022-09-03T07:51:18;99842.47;;;21.17;nan
12197;BME280;6161;43.014;25.840;2022-09-03T07:53:45;99924.50;;;21.15;nan
12197;BME280;6161;43.014;25.840;2022-09-03T07:56:12;99835.31;;;21.22;nan
12197;BME280;6161;43.014;25.840;2022-09-03T07:58:38;99839.53;;;21.25;nan
12197;BME280;6161;43.014;25.840;2022-09-03T08:01:10;99852.94;;;21.26;nan
12197;BME280;6161;43.014;25.840;2022-09-03T08:03:37;99902.88;;;21.20;nan
12197;BME280;6161;43.014;25.840;2022-09-03T08:06:05;99918.84;;;21.23;nan
12197;BME280;6161;43.014;25.840;2022-09-03T08:08:32;99829.03;;;21.22;nan
12197;BME280;6161;43.014;25.840;2022-09-03T08:11:09;99794.59;;;21.21;nan
12197;BME280;6161;43.014;25.840;2022-09-03T08:13:39;99862.38;;;21.24;nan
12197;BME280;6161;43.014;25.840;2022-09-03T08:16:06;99848.72;;;21.24;nan
12197;BME280;6161;43.014;25.840;2022-09-03T08:18:34;99820.19;;;21.26;nan
12197;BME280;6161;43.014;25.840;2022-09-03T08:21:10;99827.34;;;21.27;nan
12197;BME280;6161;43.014;25.840;2022-09-03T08:23:40;99856.28;;;21.28;nan
12197;BME280;6161;43.014;25.840;2022-09-03T08:26:06;99830.91;;;21.28;nan
12197;BME280;6161;43.014;25.840;2022-09-03T08:28:33;99842.03;;;21.33;nan
12197;BME280;6161;43.014;25.840;2022-09-03T08:31:13;99818.28;;;21.34;nan
12197;BME280;6161;43.014;25.840;2022-09-03T08:33:41;99881.50;;;21.37;nan
12197;BME280;6161;43.014;25.840;2022-09-03T08:36:18;99818.28;;;21.34;nan
12197;BME280;6161;43.014;25.840;2022-09-03T08:38:47;99834.47;;;21.35;nan
12197;BME280;6161;43.014;25.840;2022-09-03T08:41:14;99774.88;;;21.39;nan
12197;BME280;6161;43.014;25.840;2022-09-03T08:48:45;99878.56;;;21.32;nan
12197;BME280;6161;43.014;25.840;2022-09-03T08:51:12;99807.63;;;21.39;nan
12197;BME280;6161;43.014;25.840;2022-09-03T08:56:37;99779.50;;;21.45;nan
12197;BME280;6161;43.014;25.840;2022-09-03T08:59:04;99789.56;;;21.44;nan
12197;BME280;6161;43.014;25.840;2022-09-03T09:24:03;99828.13;;;21.61;nan
12197;BME280;6161;43.014;25.840;2022-09-03T09:26:07;99826.88;;;21.64;nan
12197;BME280;6161;43.014;25.840;2022-09-03T09:28:39;99853.78;;;21.67;nan
12197;BME280;6161;43.014;25.840;2022-09-03T09:31:06;99832.75;;;21.67;nan
12197;BME280;6161;43.014;25.840;2022-09-03T09:33:34;99874.53;;;21.68;nan
12197;BME280;6161;43.014;25.840;2022-09-03T09:36:02;99863.00;;;21.72;nan
12197;BME280;6161;43.014;25.840;2022-09-03T09:41:08;99806.78;;;21.45;nan
12197;BME280;6161;43.014;25.840;2022-09-03T09:43:34;99827.69;;;21.71;nan
12197;BME280;6161;43.014;25.840;2022-09-03T09:46:07;99856.69;;;21.72;nan
12197;BME280;6161;43.014;25.840;2022-09-03T09:48:38;99832.56;;;21.69;nan
12197;BME280;6161;43.014;25.840;2022-09-03T09:51:13;99863.81;;;21.73;nan
12197;BME280;6161;43.014;25.840;2022-09-03T09:53:41;99840.72;;;21.76;nan
12197;BME280;6161;43.014;25.840;2022-09-03T09:56:23;99878.50;;;21.79;nan
12197;BME280;6161;43.014;25.840;2022-09-03T09:58:48;99818.03;;;21.82;nan
12197;BME280;6161;43.014;25.840;2022-09-03T10:01:21;99832.09;;;21.79;nan
12197;BME280;6161;43.014;25.840;2022-09-03T10:06:35;99871.13;;;21.86;nan
12197;BME280;6161;43.014;25.840;2022-09-03T10:09:27;99872.66;;;21.68;nan
12197;BME280;6161;43.014;25.840;2022-09-03T10:17:20;99838.59;;;21.84;nan
12197;BME280;6161;43.014;25.840;2022-09-03T10:20:03;99845.53;;;21.73;nan
12197;BME280;6161;43.014;25.840;2022-09-03T10:22:54;99891.34;;;21.58;nan
12197;BME280;6161;43.014;25.840;2022-09-03T10:25:21;99861.38;;;21.52;nan
12197;BME280;6161;43.014;25.840;2022-09-03T10:27:50;99855.22;;;21.36;nan
12197;BME280;6161;43.014;25.840;2022-09-03T10:30:21;99889.03;;;21.35;nan
12197;BME280;6161;43.014;25.840;2022-09-03T10:33:09;99858.44;;;21.40;nan
12197;BME280;6161;43.014;25.840;2022-09-03T10:35:47;99852.97;;;21.40;nan
12197;BME280;6161;43.014;25.840;2022-09-03T10:40:47;99908.38;;;21.47;nan
12197;BME280;6161;43.014;25.840;2022-09-03T10:46:08;99893.25;;;21.51;nan
12197;BME280;6161;43.014;25.840;2022-09-03T11:05:31;99898.28;;;21.14;nan
12197;BME280;6161;43.014;25.840;2022-09-03T11:10:45;99914.19;;;21.04;nan
12197;BME280;6161;43.014;25.840;2022-09-03T11:13:31;99880.22;;;21.00;nan
12197;BME280;6161;43.014;25.840;2022-09-03T11:16:05;99902.66;;;21.02;nan
12197;BME280;6161;43.014;25.840;2022-09-03T11:18:46;99891.56;;;21.10;nan
12197;BME280;6161;43.014;25.840;2022-09-03T11:21:15;99898.06;;;21.16;nan
12197;BME280;6161;43.014;25.840;2022-09-03T11:23:45;99871.63;;;21.23;nan
12197;BME280;6161;43.014;25.840;2022-09-03T11:26:14;99934.56;;;21.21;nan
12197;BME280;6161;43.014;25.840;2022-09-03T11:28:53;99908.75;;;21.24;nan
12197;BME280;6161;43.014;25.840;2022-09-03T11:34:13;99922.22;;;21.32;nan
12197;BME280;6161;43.014;25.840;2022-09-03T11:39:23;99857.59;;;21.39;nan
12197;BME280;6161;43.014;25.840;2022-09-03T11:42:02;99865.94;;;21.38;nan
12197;BME280;6161;43.014;25.840;2022-09-03T11:44:42;99824.00;;;21.05;nan
12197;BME280;6161;43.014;25.840;2022-09-03T11:49:52;99861.75;;;21.28;nan
12197;BME280;6161;43.014;25.840;2022-09-03T11:52:26;99894.28;;;21.30;nan
12197;BME280;6161;43.014;25.840;2022-09-03T11:54:51;99851.47;;;21.17;nan
12197;BME280;6161;43.014;25.840;2022-09-03T11:57:28;99919.25;;;21.07;nan
12197;BME280;6161;43.014;25.840;2022-09-03T12:00:11;99942.72;;;21.01;nan
12197;BME280;6161;43.014;25.840;2022-09-03T12:11:04;99995.50;;;20.74;nan
12197;BME280;6161;43.014;25.840;2022-09-03T12:13:59;99891.53;;;20.90;nan
12197;BME280;6161;43.014;25.840;2022-09-03T12:19:08;99950.84;;;20.81;nan
12197;BME280;6161;43.014;25.840;2022-09-03T12:21:38;99943.53;;;20.82;nan
12197;BME280;6161;43.014;25.840;2022-09-03T12:24:05;99876.19;;;20.89;nan
12197;BME280;6161;43.014;25.840;2022-09-03T12:26:39;99901.22;;;20.99;nan
12197;BME280;6161;43.014;25.840;2022-09-03T12:29:05;99944.81;;;21.06;nan
12197;BME280;6161;43.014;25.840;2022-09-03T12:31:43;99890.91;;;21.08;nan
12197;BME280;6161;43.014;25.840;2022-09-03T12:34:13;99941.06;;;21.14;nan
12197;BME280;6161;43.014;25.840;2022-09-03T12:36:44;99879.59;;;21.18;nan
12197;BME280;6161;43.014;25.840;2022-09-03T12:39:12;99894.91;;;21.19;nan
12197;BME280;6161;43.014;25.840;2022-09-03T12:41:45;99915.69;;;21.13;nan
12197;BME280;6161;43.014;25.840;2022-09-03T12:44:24;99918.41;;;21.20;nan
12197;BME280;6161;43.014;25.840;2022-09-03T12:49:24;99905.81;;;21.19;nan
12197;BME280;6161;43.014;25.840;2022-09-03T12:51:50;100037.78;;;21.04;nan
12197;BME280;6161;43.014;25.840;2022-09-03T12:54:19;100005.00;;;20.91;nan
12197;BME280;6161;43.014;25.840;2022-09-03T12:56:58;99884.81;;;20.93;nan
12197;BME280;6161;43.014;25.840;2022-09-03T12:59:27;99948.56;;;20.92;nan
12197;BME280;6161;43.014;25.840;2022-09-03T13:01:58;99922.56;;;20.89;nan
12197;BME280;6161;43.014;25.840;2022-09-03T13:04:31;99927.16;;;20.89;nan
12197;BME280;6161;43.014;25.840;2022-09-03T13:09:35;99899.94;;;20.95;nan
12197;BME280;6161;43.014;25.840;2022-09-03T13:12:02;99883.53;;;20.89;nan
12197;BME280;6161;43.014;25.840;2022-09-03T13:23:29;99944.41;;;21.02;nan
12197;BME280;6161;43.014;25.840;2022-09-03T13:31:57;99902.88;;;21.14;nan
12197;BME280;6161;43.014;25.840;2022-09-03T13:34:42;99945.66;;;21.06;nan
12197;BME280;6161;43.014;25.840;2022-09-03T13:40:11;99934.38;;;21.10;nan
12197;BME280;6161;43.014;25.840;2022-09-03T13:42:50;99953.25;;;21.18;nan
12197;BME280;6161;43.014;25.840;2022-09-03T13:45:30;99930.81;;;21.22;nan
12197;BME280;6161;43.014;25.840;2022-09-03T13:51:30;99906.66;;;21.13;nan
12197;BME280;6161;43.014;25.840;2022-09-03T13:54:27;99931.22;;;21.19;nan
12197;BME280;6161;43.014;25.840;2022-09-03T13:57:08;99952.81;;;21.21;nan
12197;BME280;6161;43.014;25.840;2022-09-03T14:00:00;99960.59;;;21.24;nan
12197;BME280;6161;43.014;25.840;2022-09-03T14:10:49;99949.84;;;20.96;nan
12197;BME280;6161;43.014;25.840;2022-09-03T14:16:07;99924.66;;;20.94;nan
12197;BME280;6161;43.014;25.840;2022-09-03T14:19:14;99969.56;;;20.98;nan
12197;BME280;6161;43.014;25.840;2022-09-03T14:21:40;99958.06;;;21.02;nan
12197;BME280;6161;43.014;25.840;2022-09-03T14:24:26;99977.38;;;21.07;nan
12197;BME280;6161;43.014;25.840;2022-09-03T14:27:00;99955.97;;;21.04;nan
12197;BME280;6161;43.014;25.840;2022-09-03T14:29:34;99959.06;;;21.01;nan
12197;BME280;6161;43.014;25.840;2022-09-03T14:48:03;99971.50;;;21.17;nan
12197;BME280;6161;43.014;25.840;2022-09-03T14:51:00;99979.28;;;21.20;nan
12197;BME280;6161;43.014;25.840;2022-09-03T14:56:28;99966.91;;;21.24;nan
12197;BME280;6161;43.014;25.840;2022-09-03T15:01:38;99964.19;;;21.24;nan
12197;BME280;6161;43.014;25.840;2022-09-03T15:04:13;100002.16;;;21.26;nan
12197;BME280;6161;43.014;25.840;2022-09-03T15:09:31;99990.16;;;21.14;nan
12197;BME280;6161;43.014;25.840;2022-09-03T15:12:23;99959.13;;;21.15;nan
12197;BME280;6161;43.014;25.840;2022-09-03T15:14:57;99997.72;;;21.18;nan
12197;BME280;6161;43.014;25.840;2022-09-03T15:36:44;99977.38;;;21.14;nan
12197;BME280;6161;43.014;25.840;2022-09-03T15:39:25;100016.41;;;21.15;nan
12197;BME280;6161;43.014;25.840;2022-09-03T15:41:56;99971.06;;;21.14;nan
12197;BME280;6161;43.014;25.840;2022-09-03T15:44:25;99978.84;;;21.10;nan
12197;BME280;6161;43.014;25.840;2022-09-03T15:46:56;100019.09;;;21.08;nan
12197;BME280;6161;43.014;25.840;2022-09-03T15:54:55;99891.50;;;20.70;nan
12197;BME280;6161;43.014;25.840;2022-09-03T16:00:07;100008.16;;;21.01;nan
12197;BME280;6161;43.014;25.840;2022-09-03T16:02:58;100027.41;;;20.86;nan
12197;BME280;6161;43.014;25.840;2022-09-03T16:11:12;99968.66;;;20.71;nan
12197;BME280;6161;43.014;25.840;2022-09-03T16:16:26;99950.81;;;20.68;nan
12197;BME280;6161;43.014;25.840;2022-09-03T16:24:17;100006.41;;;20.74;nan
12197;BME280;6161;43.014;25.840;2022-09-03T16:26:53;100000.09;;;20.73;nan
12197;BME280;6161;43.014;25.840;2022-09-03T16:29:28;100042.06;;;20.72;nan
12197;BME280;6161;43.014;25.840;2022-09-03T16:32:16;99988.38;;;20.73;nan
12197;BME280;6161;43.014;25.840;2022-09-03T16:38:01;100003.44;;;20.69;nan
12197;BME280;6161;43.014;25.840;2022-09-03T16:40:43;99999.88;;;20.68;nan
12197;BME280;6161;43.014;25.840;2022-09-03T16:48:32;100038.22;;;20.67;nan
12197;BME280;6161;43.014;25.840;2022-09-03T17:15:50;100068.94;;;20.54;nan
12197;BME280;6161;43.014;25.840;2022-09-03T17:26:45;100020.50;;;20.49;nan
12197;BME280;6161;43.014;25.840;2022-09-03T17:32:14;100080.84;;;20.46;nan
12197;BME280;6161;43.014;25.840;2022-09-03T17:38:39;100077.47;;;20.37;nan
12197;BME280;6161;43.014;25.840;2022-09-03T17:43:55;100111.34;;;20.28;nan
12197;BME280;6161;43.014;25.840;2022-09-03T17:49:05;100101.72;;;20.32;nan
12197;BME280;6161;43.014;25.840;2022-09-03T17:51:57;100063.19;;;20.35;nan
12197;BME280;6161;43.014;25.840;2022-09-03T17:54:42;100080.38;;;20.36;nan
12197;BME280;6161;43.014;25.840;2022-09-03T17:57:25;100044.25;;;20.27;nan
12197;BME280;6161;43.014;25.840;2022-09-03T18:02:38;100096.00;;;20.27;nan
12197;BME280;6161;43.014;25.840;2022-09-03T18:10:22;100104.81;;;20.22;nan
12197;BME280;6161;43.014;25.840;2022-09-03T18:15:27;100087.16;;;20.18;nan
12197;BME280;6161;43.014;25.840;2022-09-03T18:17:58;100064.31;;;20.19;nan
12197;BME280;6161;43.014;25.840;2022-09-03T18:20:28;100088.84;;;20.19;nan
12197;BME280;6161;43.014;25.840;2022-09-03T18:23:45;100101.94;;;20.09;nan
12197;BME280;6161;43.014;25.840;2022-09-03T18:26:39;100097.31;;;20.03;nan
12197;BME280;6161;43.014;25.840;2022-09-03T18:29:56;100144.03;;;20.07;nan
12197;BME280;6161;43.014;25.840;2022-09-03T18:32:43;100143.00;;;20.08;nan
12197;BME280;6161;43.014;25.840;2022-09-03T18:35:29;100128.75;;;20.06;nan
12197;BME280;6161;43.014;25.840;2022-09-03T18:38:14;100145.84;;;19.99;nan
12197;BME280;6161;43.014;25.840;2022-09-03T18:41:19;100098.06;;;19.97;nan
12197;BME280;6161;43.014;25.840;2022-09-03T18:53:57;100127.38;;;19.95;nan
12197;BME280;6161;43.014;25.840;2022-09-03T18:56:49;100082.97;;;19.94;nan
12197;BME280;6161;43.014;25.840;2022-09-03T19:09:16;100128.59;;;19.92;nan
12197;BME280;6161;43.014;25.840;2022-09-03T19:15:19;100123.63;;;19.96;nan
12197;BME280;6161;43.014;25.840;2022-09-03T19:21:12;100140.81;;;19.96;nan
12197;BME280;6161;43.014;25.840;2022-09-03T19:24:01;100111.72;;;19.75;nan
12197;BME280;6161;43.014;25.840;2022-09-03T19:39:01;100156.81;;;19.85;nan
12197;BME280;6161;43.014;25.840;2022-09-03T19:42:00;100118.91;;;19.83;nan
12197;BME280;6161;43.014;25.840;2022-09-03T19:51:08;100141.59;;;19.90;nan
12197;BME280;6161;43.014;25.840;2022-09-03T19:53:57;100129.84;;;19.90;nan
12197;BME280;6161;43.014;25.840;2022-09-03T19:56:43;100084.78;;;19.87;nan
12197;BME280;6161;43.014;25.840;2022-09-03T19:59:34;100176.34;;;19.88;nan
12197;BME280;6161;43.014;25.840;2022-09-03T20:02:19;100131.06;;;19.87;nan
12197;BME280;6161;43.014;25.840;2022-09-03T20:05:06;100164.13;;;19.84;nan
12197;BME280;6161;43.014;25.840;2022-09-03T20:07:54;100121.81;;;19.82;nan
12197;BME280;6161;43.014;25.840;2022-09-03T20:10:41;100169.97;;;19.81;nan
12197;BME280;6161;43.014;25.840;2022-09-03T20:13:16;100131.47;;;19.84;nan
12197;BME280;6161;43.014;25.840;2022-09-03T20:18:20;100148.28;;;19.88;nan
12197;BME280;6161;43.014;25.840;2022-09-03T20:28:32;100190.69;;;19.82;nan
12197;BME280;6161;43.014;25.840;2022-09-03T20:31:23;100187.78;;;19.84;nan
12197;BME280;6161;43.014;25.840;2022-09-03T20:47:56;100170.50;;;19.91;nan
12197;BME280;6161;43.014;25.840;2022-09-03T20:50:37;100175.94;;;19.91;nan
12197;BME280;6161;43.014;25.840;2022-09-03T21:10:58;100219.50;;;19.91;nan